RJTT/HND METAR and TAF weather

Enter ICAO airport designator
Station Type Date Time Source
RJTT METAR 2019/07/15 20:05 UTC NOAA

RJTT 152005Z 02009KT 6000 -SHRA FEW005 SCT007 BKN010 20/19 Q1012 RMK 1ST005 4ST007 7CU010 A2989


Station Type Date Time Source
RJTT Decoded METAR 2019/07/15 20:05 UTC NOAA

Tokyo International Airport, Japan (RJTT) 35-33N 139-47E 8M
Jul 15, 2019 - 04:05 PM EDT / 2019.07.15 2005 UTC
Wind: from the NNE (020 degrees) at 10 MPH (9 KT):0
Visibility: 3 mile(s):0
Sky conditions: mostly cloudy
Weather: light rain showers
Temperature: 68 F (20 C)
Dew Point: 66 F (19 C)
Relative Humidity: 93%
Pressure (altimeter): 29.88 in. Hg (1012 hPa)
ob: RJTT 152005Z 02009KT 6000 -SHRA FEW005 SCT007 BKN010 20/19 Q1012 RMK 1ST005 4ST007 7CU010 A2989
cycle: 20

Station Type Date Time Source
RJTT TAF 2019/07/15 18:30 UTC NOAA

TAF RJTT 151705Z 1518/1700 02010KT 6000 -RA FEW005 BKN008
TEMPO 1518/1600 4000 -RA BR
TEMPO 1604/1609 3000 SHRA BR FEW003 BKN005
TEMPO 1609/1612 4000 -SHRA BR
BECMG 1618/1621 FEW008 BKN015

Example: see airport list